createdAt,value
2022-10-28T00:00:00.642Z,996.0095
2022-10-28T00:01:00.796Z,995.9449
2022-10-28T00:02:01.157Z,995.9736
2022-10-28T00:03:01.180Z,996.0382
2022-10-28T00:04:01.241Z,996.0024
2022-10-28T00:05:00.409Z,995.9807
2022-10-28T00:06:00.542Z,996.1816
2022-10-28T00:07:00.675Z,996.1241
2022-10-28T00:08:00.852Z,996.1029
2022-10-28T00:09:00.979Z,996.0382
2022-10-28T00:10:01.126Z,996.1528
2022-10-28T00:11:00.271Z,996.1024
2022-10-28T00:12:00.418Z,995.9583
2022-10-28T00:13:00.576Z,996.0591
2022-10-28T00:14:00.709Z,995.9082
2022-10-28T00:15:00.850Z,995.9875
2022-10-28T00:16:01.000Z,995.8942
2022-10-28T00:17:01.139Z,995.9517
2022-10-28T00:18:00.315Z,996.0091
2022-10-28T00:19:00.448Z,996.0666
2022-10-28T00:20:00.592Z,996.0519
2022-10-28T00:21:00.756Z,995.8725
2022-10-28T00:22:00.878Z,996.1091
2022-10-28T00:23:01.031Z,996.0004
2022-10-28T00:24:01.176Z,995.8851
2022-10-28T00:25:00.333Z,996.0643
2022-10-28T00:26:00.493Z,995.8914
2022-10-28T00:27:00.620Z,995.9848
2022-10-28T00:28:00.769Z,996.0994
2022-10-28T00:29:00.948Z,995.8544
2022-10-28T00:30:01.062Z,995.9261
2022-10-28T00:31:01.213Z,996.005
2022-10-28T00:32:00.353Z,996.0551
2022-10-28T00:33:00.489Z,995.9758
2022-10-28T00:34:00.661Z,995.997
2022-10-28T00:35:00.798Z,996.0617
2022-10-28T00:36:04.238Z,996.0759
2022-10-28T00:37:01.089Z,996.2052
2022-10-28T00:38:01.274Z,996.0901
2022-10-28T00:39:00.388Z,995.8744
2022-10-28T00:40:00.538Z,995.997
2022-10-28T00:41:00.685Z,995.8824
2022-10-28T00:42:00.832Z,995.8035
2022-10-28T00:43:01.005Z,995.7748
2022-10-28T00:44:01.147Z,995.8898
2022-10-28T00:45:00.306Z,995.6815
2022-10-28T00:46:00.437Z,995.7893
2022-10-28T00:47:00.594Z,995.696
2022-10-28T00:48:00.739Z,995.739
2022-10-28T00:49:00.885Z,995.7385
2022-10-28T00:50:01.047Z,995.7385
2022-10-28T00:51:01.162Z,995.738
2022-10-28T00:52:00.311Z,995.7593
2022-10-28T00:53:00.461Z,995.7159
2022-10-28T00:54:00.604Z,995.982
2022-10-28T00:55:00.776Z,995.7159
2022-10-28T00:56:00.908Z,995.8666
2022-10-28T00:57:01.059Z,995.8302
2022-10-28T00:58:01.196Z,995.8877
2022-10-28T00:59:00.351Z,995.8876
2022-10-28T01:00:00.505Z,995.7073
2022-10-28T01:01:00.632Z,995.721
2022-10-28T01:02:00.946Z,995.9585
2022-10-28T01:03:00.925Z,995.6922
2022-10-28T01:04:01.078Z,995.7064
2022-10-28T01:05:01.243Z,995.6777
2022-10-28T01:06:00.373Z,995.764
2022-10-28T01:07:00.524Z,995.9944
2022-10-28T01:08:00.677Z,996.0016
2022-10-28T01:09:00.825Z,995.8071
2022-10-28T01:10:00.987Z,995.8288
2022-10-28T01:11:01.135Z,995.7273
2022-10-28T01:12:00.253Z,995.6404
2022-10-28T01:13:00.391Z,995.7122
2022-10-28T01:14:00.541Z,995.5552
2022-10-28T01:15:00.691Z,995.604
2022-10-28T01:16:00.858Z,995.5047
2022-10-28T01:17:00.991Z,995.4826
2022-10-28T01:18:01.150Z,995.4677
2022-10-28T01:19:00.288Z,995.6886
2022-10-28T01:20:00.460Z,995.4956
2022-10-28T01:21:00.608Z,995.3586
2022-10-28T01:22:00.747Z,995.5098
2022-10-28T01:23:00.894Z,995.6447
2022-10-28T01:24:01.070Z,995.5019
2022-10-28T01:25:01.191Z,995.5081
2022-10-28T01:26:00.344Z,995.5147
2022-10-28T01:27:00.492Z,995.233
2022-10-28T01:28:00.654Z,995.5277
2022-10-28T01:29:00.808Z,995.6042
2022-10-28T01:30:00.959Z,995.4966
2022-10-28T01:31:01.098Z,995.3799
2022-10-28T01:32:01.260Z,995.3568
2022-10-28T01:33:00.385Z,995.4061
2022-10-28T01:34:00.534Z,995.2896
2022-10-28T01:35:00.700Z,995.3537
2022-10-28T01:36:00.827Z,995.432
2022-10-28T01:37:00.988Z,995.3081
2022-10-28T01:38:01.145Z,995.423
2022-10-28T01:39:00.281Z,995.3065
2022-10-28T01:40:00.429Z,995.2913
2022-10-28T01:41:00.574Z,995.4063
2022-10-28T01:42:00.717Z,995.3403
2022-10-28T01:43:00.864Z,995.4556
2022-10-28T01:44:01.014Z,995.3754
2022-10-28T01:45:01.182Z,995.4979
2022-10-28T01:46:00.302Z,995.483
2022-10-28T01:47:00.449Z,995.2365
2022-10-28T01:48:00.592Z,995.3087
2022-10-28T01:49:00.767Z,995.1491
2022-10-28T01:50:00.885Z,995.2285
2022-10-28T01:51:01.034Z,995.344
2022-10-28T01:52:01.177Z,995.3439
2022-10-28T01:53:00.334Z,995.3003
2022-10-28T01:54:00.503Z,995.3653
2022-10-28T01:55:00.626Z,995.4085
2022-10-28T01:56:00.776Z,995.3429
2022-10-28T01:57:00.927Z,995.4008
2022-10-28T01:58:01.090Z,995.2559
2022-10-28T01:59:01.256Z,995.4588
2022-10-28T02:00:00.415Z,995.3064
2022-10-28T02:01:00.708Z,995.2559
2022-10-28T02:03:00.841Z,995.4584
2022-10-28T02:04:01.016Z,995.3064
2022-10-28T02:05:01.133Z,995.3714
2022-10-28T02:06:00.291Z,995.2194
2022-10-28T02:07:00.431Z,995.2845
2022-10-28T02:08:00.585Z,995.2845
2022-10-28T02:09:00.750Z,995.1686
2022-10-28T02:10:00.882Z,995.1905
2022-10-28T02:11:01.025Z,995.292
2022-10-28T02:12:01.153Z,995.4075
2022-10-28T02:13:00.307Z,995.1757
2022-10-28T02:14:00.497Z,995.4508
2022-10-28T02:15:00.647Z,995.2479
2022-10-28T02:16:00.768Z,995.2047
2022-10-28T02:17:00.903Z,995.1467
2022-10-28T02:18:01.057Z,995.1686
2022-10-28T02:19:01.228Z,995.2266
2022-10-28T02:20:00.348Z,995.0964
2022-10-28T02:21:00.486Z,995.2555
2022-10-28T02:22:00.638Z,995.1106
2022-10-28T02:23:00.798Z,995.1976
2022-10-28T02:24:00.968Z,995.1467
2022-10-28T02:25:01.082Z,995.1467
2022-10-28T02:26:01.239Z,995.1686
2022-10-28T02:27:00.371Z,994.9947
2022-10-28T02:28:00.561Z,995.0237
2022-10-28T02:29:00.697Z,995.0746
2022-10-28T02:30:00.843Z,995.0312
2022-10-28T02:31:00.971Z,995.1761
2022-10-28T02:32:01.129Z,995.0898
2022-10-28T02:33:00.280Z,995.0538
2022-10-28T02:34:00.436Z,995.1336
2022-10-28T02:35:00.585Z,995.1915
2022-10-28T02:36:00.714Z,995.1625
2022-10-28T02:37:00.846Z,995.1554
2022-10-28T02:38:01.007Z,995.1482
2022-10-28T02:39:01.143Z,995.1336
2022-10-28T02:40:00.323Z,995.1122
2022-10-28T02:41:00.454Z,995.2281
2022-10-28T02:42:00.600Z,995.0258
2022-10-28T02:43:00.748Z,995.2213
2022-10-28T02:44:00.901Z,995.3444
2022-10-28T02:45:01.075Z,995.1564
2022-10-28T02:46:01.198Z,995.2071
2022-10-28T02:47:00.354Z,995.2213
2022-10-28T02:48:00.491Z,995.1054
2022-10-28T02:49:00.649Z,995.1344
2022-10-28T02:50:00.815Z,994.9968
2022-10-28T02:51:00.953Z,994.9968
2022-10-28T02:52:01.095Z,994.9968
2022-10-28T02:53:01.236Z,994.9895
2022-10-28T02:54:00.394Z,995.0475
2022-10-28T02:55:00.559Z,994.9316
2022-10-28T02:56:00.699Z,994.9895
2022-10-28T02:57:00.830Z,994.9242
2022-10-28T02:58:00.978Z,995.1269
2022-10-28T02:59:01.137Z,994.9968
2022-10-28T03:00:00.298Z,995.0912
2022-10-28T03:01:00.440Z,995.1349
2022-10-28T03:02:00.660Z,995.1059
2022-10-28T03:03:00.727Z,995.1207
2022-10-28T03:04:00.860Z,995.2584
2022-10-28T03:05:01.013Z,995.1644
2022-10-28T03:06:01.157Z,995.2802
2022-10-28T03:07:00.307Z,995.1215
2022-10-28T03:08:00.473Z,995.2302
2022-10-28T03:09:00.593Z,995.1942
2022-10-28T03:10:00.741Z,995.151
2022-10-28T03:11:00.888Z,995.1148
2022-10-28T03:12:01.124Z,995.0285
2022-10-28T03:13:01.213Z,995.1447
2022-10-28T03:14:00.338Z,995.2535
2022-10-28T03:15:00.488Z,995.2393
2022-10-28T03:16:00.626Z,995.2251
2022-10-28T03:17:00.780Z,995.095
2022-10-28T03:18:00.945Z,995.2544
2022-10-28T03:19:01.128Z,995.1681
2022-10-28T03:20:01.213Z,995.3203
2022-10-28T03:21:00.355Z,995.2771
2022-10-28T03:22:00.499Z,995.1765
2022-10-28T03:23:00.657Z,995.0616
2022-10-28T03:24:00.778Z,995.1638
2022-10-28T03:25:00.932Z,995.0918
2022-10-28T03:26:01.088Z,995.0489
2022-10-28T03:27:01.231Z,995.2807
2022-10-28T03:28:00.405Z,995.2091
2022-10-28T03:29:00.531Z,995.2095
2022-10-28T03:30:00.673Z,995.0655
2022-10-28T03:31:00.827Z,995.1163
2022-10-28T03:32:00.965Z,995.1528
2022-10-28T03:33:01.132Z,995.1243
2022-10-28T03:34:00.264Z,995.0888
2022-10-28T03:35:00.410Z,995.1684
2022-10-28T03:36:00.566Z,995.2267
2022-10-28T03:37:00.717Z,995.1689
2022-10-28T03:38:00.893Z,995.256
2022-10-28T03:39:01.008Z,995.1483
2022-10-28T03:40:01.162Z,995.12
2022-10-28T03:41:00.303Z,995.0049
2022-10-28T03:42:00.453Z,995.0774
2022-10-28T03:43:00.620Z,994.9694
2022-10-28T03:44:00.772Z,994.9695
2022-10-28T03:45:00.887Z,995.2368
2022-10-28T03:46:01.037Z,995.2008
2022-10-28T03:47:01.169Z,995.1289
2022-10-28T03:48:00.319Z,995.1649
2022-10-28T03:49:00.481Z,995.2368
2022-10-28T03:50:00.629Z,995.2368
2022-10-28T03:51:00.758Z,995.1289
2022-10-28T03:52:00.912Z,995.1507
2022-10-28T03:53:01.045Z,994.9628
2022-10-28T03:54:01.192Z,995.2008
2022-10-28T03:55:00.388Z,995.1578
2022-10-28T03:56:00.483Z,995.093
2022-10-28T03:57:00.634Z,995.0283
2022-10-28T03:58:00.784Z,994.9492
2022-10-28T03:59:00.927Z,995.0718
2022-10-28T04:00:01.098Z,994.9133
2022-10-28T04:01:01.267Z,994.9422
2022-10-28T04:02:00.512Z,995.0501
2022-10-28T04:03:00.537Z,995.1649
2022-10-28T04:04:00.678Z,995.0413
2022-10-28T04:05:00.843Z,995.005
2022-10-28T04:06:00.992Z,994.9537
2022-10-28T04:07:01.124Z,995.0039
2022-10-28T04:08:00.271Z,995.0756
2022-10-28T04:09:00.423Z,995.0823
2022-10-28T04:10:00.567Z,994.923
2022-10-28T04:11:00.721Z,994.8506
2022-10-28T04:12:00.932Z,995.038
2022-10-28T04:13:01.009Z,995.1096
2022-10-28T04:14:01.170Z,995.0296
2022-10-28T04:15:00.295Z,994.8703
2022-10-28T04:16:00.444Z,995.0935
2022-10-28T04:17:00.598Z,994.9415
2022-10-28T04:18:00.749Z,995.0349
2022-10-28T04:19:00.920Z,994.9405
2022-10-28T04:20:01.042Z,994.9258
2022-10-28T04:21:01.183Z,994.9183
2022-10-28T04:22:00.321Z,995.0916
2022-10-28T04:23:00.724Z,994.8894
2022-10-28T04:24:00.624Z,995.0049
2022-10-28T04:25:00.783Z,994.911
2022-10-28T04:26:00.901Z,994.9547
2022-10-28T04:27:01.049Z,994.9476
2022-10-28T04:28:01.195Z,994.9694
2022-10-28T04:29:00.358Z,995.1646
2022-10-28T04:30:00.499Z,995.1357
2022-10-28T04:31:00.625Z,995.0278
2022-10-28T04:32:00.782Z,995.0278
2022-10-28T04:33:00.929Z,995.2807
2022-10-28T04:34:01.082Z,995.2807
2022-10-28T04:35:01.250Z,995.2447
2022-10-28T04:36:00.374Z,995.1073
2022-10-28T04:37:00.543Z,995.1727
2022-10-28T04:38:00.678Z,995.2016
2022-10-28T04:39:00.834Z,995.238
2022-10-28T04:40:00.999Z,995.1375
2022-10-28T04:41:01.137Z,995.0801
2022-10-28T04:42:00.269Z,995.1456
2022-10-28T04:43:00.416Z,995.0736
2022-10-28T04:44:00.559Z,995.175
2022-10-28T04:45:00.741Z,995.0812
2022-10-28T04:46:00.854Z,995.0451
2022-10-28T04:47:01.024Z,995.1029
2022-10-28T04:48:01.156Z,995.0311
2022-10-28T04:49:00.300Z,995.0958
2022-10-28T04:50:00.472Z,995.0458
2022-10-28T04:51:00.625Z,995.0097
2022-10-28T04:52:00.755Z,995.0245
2022-10-28T04:53:00.901Z,995.1112
2022-10-28T04:54:01.055Z,995.0969
2022-10-28T04:55:01.195Z,995.1405
2022-10-28T04:56:00.373Z,994.9601
2022-10-28T04:57:00.500Z,995.0252
2022-10-28T04:58:00.652Z,995.112
2022-10-28T04:59:00.789Z,995.0252
2022-10-28T05:00:00.935Z,995.0831
2022-10-28T05:01:01.129Z,995.0759
2022-10-28T05:02:01.335Z,994.9462
2022-10-28T05:03:00.378Z,994.9462
2022-10-28T05:04:00.519Z,995.0328
2022-10-28T05:05:00.691Z,994.9751
2022-10-28T05:06:00.855Z,995.0328
2022-10-28T05:07:00.989Z,994.9387
2022-10-28T05:08:01.124Z,994.9244
2022-10-28T05:09:00.268Z,994.9315
2022-10-28T05:10:00.410Z,994.9892
2022-10-28T05:11:00.579Z,995.0328
2022-10-28T05:12:00.692Z,995.0906
2022-10-28T05:13:00.840Z,994.7735
2022-10-28T05:14:00.996Z,994.9831
2022-10-28T05:15:01.134Z,994.9473
2022-10-28T05:16:00.297Z,995.0844
2022-10-28T05:17:00.453Z,995.0059
2022-10-28T05:18:00.575Z,995.007
2022-10-28T05:19:00.725Z,995.0219
2022-10-28T05:20:00.865Z,995.109
2022-10-28T05:21:01.017Z,995.0811
2022-10-28T05:22:01.171Z,995.067
2022-10-28T05:23:00.290Z,995.1033
2022-10-28T05:24:00.441Z,994.9667
2022-10-28T05:25:00.597Z,995.0244
2022-10-28T05:26:00.749Z,995.0391
2022-10-28T05:27:00.933Z,994.9889
2022-10-28T05:28:01.035Z,994.91
2022-10-28T05:29:01.193Z,994.9611
2022-10-28T05:30:00.329Z,994.8964
2022-10-28T05:31:00.484Z,994.9617
2022-10-28T05:32:00.702Z,994.8614
2022-10-28T05:33:01.323Z,994.9191
2022-10-28T05:34:00.963Z,995.2074
2022-10-28T05:35:01.115Z,995.0207
2022-10-28T05:36:01.247Z,994.9058
2022-10-28T05:37:00.411Z,994.9276
2022-10-28T05:38:00.542Z,994.9064
2022-10-28T05:39:00.687Z,994.9928
2022-10-28T05:40:00.837Z,994.9352
2022-10-28T05:41:00.986Z,994.9928
2022-10-28T05:42:01.157Z,994.9499
2022-10-28T05:43:00.288Z,994.9498
2022-10-28T05:44:00.430Z,994.9068
2022-10-28T05:45:00.571Z,994.9502
2022-10-28T05:46:00.723Z,995.0584
2022-10-28T05:47:00.953Z,994.9219
2022-10-28T05:48:01.050Z,994.9578
2022-10-28T05:49:01.168Z,994.879
2022-10-28T05:50:00.310Z,994.9654
2022-10-28T05:51:00.468Z,994.9219
2022-10-28T05:52:00.618Z,995.26
2022-10-28T05:53:00.785Z,995.0588
2022-10-28T05:54:00.907Z,995.0299
2022-10-28T05:55:01.058Z,994.865
2022-10-28T05:56:01.198Z,994.9871
2022-10-28T05:57:00.346Z,995.0448
2022-10-28T05:58:00.511Z,995.0666
2022-10-28T05:59:00.630Z,994.9225
2022-10-28T06:00:00.780Z,994.9655
2022-10-28T06:01:00.932Z,994.9513
2022-10-28T06:02:01.091Z,994.9589
2022-10-28T06:03:01.266Z,995.2181
2022-10-28T06:04:00.443Z,995.1822
2022-10-28T06:05:00.530Z,995.2616
2022-10-28T06:06:00.691Z,995.2328
2022-10-28T06:07:00.830Z,995.0816
2022-10-28T06:08:00.977Z,995.1317
2022-10-28T06:09:01.171Z,995.0236
2022-10-28T06:10:00.285Z,995.1883
2022-10-28T06:10:58.891Z,995.2383
2022-10-28T06:11:59.060Z,995.2451
2022-10-28T06:12:59.198Z,995.1293
2022-10-28T06:13:59.383Z,995.2948
2022-10-28T06:14:59.507Z,995.2872
2022-10-28T06:15:59.664Z,995.265
2022-10-28T06:16:58.796Z,995.2074
2022-10-28T06:17:58.945Z,995.4303
2022-10-28T06:18:59.095Z,995.4228
2022-10-28T06:19:59.261Z,995.2424
2022-10-28T06:20:59.396Z,995.3142
2022-10-28T06:21:59.688Z,995.3501
2022-10-28T06:22:59.694Z,995.3425
2022-10-28T06:23:58.846Z,995.155
2022-10-28T06:24:59.000Z,995.1691
2022-10-28T06:25:59.245Z,995.3705
2022-10-28T06:26:59.288Z,995.3629
2022-10-28T06:27:59.431Z,995.3843
2022-10-28T06:28:59.590Z,995.4126
2022-10-28T06:29:58.742Z,995.4122
2022-10-28T06:30:58.906Z,995.354
2022-10-28T06:31:59.070Z,995.3105
2022-10-28T06:32:59.205Z,995.411
2022-10-28T06:33:59.341Z,995.4901
2022-10-28T06:34:59.501Z,995.3456
2022-10-28T06:35:59.652Z,995.6467
2022-10-28T06:36:58.818Z,995.3234
2022-10-28T06:37:58.945Z,995.3666
2022-10-28T06:38:59.089Z,995.5321
2022-10-28T06:39:59.246Z,995.6241
2022-10-28T06:40:59.385Z,995.5389
2022-10-28T06:41:59.550Z,995.4446
2022-10-28T06:42:59.708Z,995.4799
2022-10-28T06:43:58.829Z,995.3782
2022-10-28T06:44:58.977Z,995.6429
2022-10-28T06:45:59.117Z,995.5065
2022-10-28T06:47:00.864Z,995.5275
2022-10-28T06:48:00.944Z,995.6187
2022-10-28T06:49:01.108Z,995.4826
2022-10-28T06:50:01.248Z,995.5042
2022-10-28T06:51:00.393Z,995.6394
2022-10-28T06:52:00.537Z,995.6531
2022-10-28T06:53:00.684Z,995.488
2022-10-28T06:54:00.856Z,995.6303
2022-10-28T06:55:00.990Z,995.4218
2022-10-28T06:56:01.123Z,995.4793
2022-10-28T06:57:01.265Z,995.5006
2022-10-28T06:58:00.423Z,995.5221
2022-10-28T06:59:00.586Z,995.6066
2022-10-28T07:00:00.753Z,995.606
2022-10-28T07:01:00.880Z,995.542
2022-10-28T07:02:01.220Z,995.4547
2022-10-28T07:03:01.507Z,995.4979
2022-10-28T07:04:00.315Z,995.6767
2022-10-28T07:05:00.483Z,995.425
2022-10-28T07:06:00.654Z,995.5262
2022-10-28T07:07:00.752Z,995.5766
2022-10-28T07:08:00.891Z,995.7627
2022-10-28T07:09:01.054Z,995.5182
2022-10-28T07:10:01.206Z,995.4745
2022-10-28T07:11:00.334Z,995.7186
2022-10-28T07:12:04.933Z,995.639
2022-10-28T07:13:00.636Z,995.6603
2022-10-28T07:14:00.794Z,995.6816
2022-10-28T07:15:00.967Z,995.609
2022-10-28T07:16:01.094Z,995.7463
2022-10-28T07:17:01.237Z,995.6014
2022-10-28T07:18:00.384Z,995.8043
2022-10-28T07:19:00.530Z,995.6736
2022-10-28T07:20:00.699Z,995.6736
2022-10-28T07:21:00.838Z,995.6228
2022-10-28T07:22:00.966Z,995.7531
2022-10-28T07:23:01.133Z,995.724
2022-10-28T07:24:01.272Z,995.8179
2022-10-28T07:25:00.433Z,995.7671
2022-10-28T07:26:00.589Z,995.6512
2022-10-28T07:27:00.724Z,995.7741
2022-10-28T07:28:00.872Z,995.6436
2022-10-28T07:29:01.037Z,995.6507
2022-10-28T07:30:01.201Z,995.7738
2022-10-28T07:31:00.402Z,995.7953
2022-10-28T07:32:00.461Z,995.8746
2022-10-28T07:33:00.634Z,995.8671
2022-10-28T07:34:00.774Z,995.8667
2022-10-28T07:35:00.933Z,995.7865
2022-10-28T07:36:01.061Z,995.931
2022-10-28T07:37:01.209Z,996.0395
2022-10-28T07:38:00.351Z,995.8142
2022-10-28T07:39:00.504Z,995.8501
2022-10-28T07:40:00.665Z,995.6465
2022-10-28T07:41:00.784Z,995.6461
2022-10-28T07:42:00.933Z,995.7328
2022-10-28T07:43:01.087Z,995.6601
2022-10-28T07:44:01.219Z,995.7105
2022-10-28T07:45:00.407Z,995.6591
2022-10-28T07:46:00.520Z,995.8038
2022-10-28T07:47:00.672Z,995.6001
2022-10-28T07:48:00.811Z,995.6074
2022-10-28T07:49:00.957Z,995.7088
2022-10-28T07:50:03.606Z,995.7883
2022-10-28T07:51:01.256Z,995.759
2022-10-28T07:52:00.389Z,995.8676
2022-10-28T07:53:00.547Z,995.7149
2022-10-28T07:54:00.695Z,995.5347
2022-10-28T07:55:00.859Z,995.7359
2022-10-28T07:56:00.987Z,995.641
2022-10-28T07:57:01.139Z,995.5405
2022-10-28T07:58:01.291Z,995.5764
2022-10-28T07:59:00.433Z,995.7413
2022-10-28T08:00:00.594Z,995.6684
2022-10-28T08:01:00.769Z,995.8425
2022-10-28T08:02:00.971Z,995.6967
2022-10-28T08:03:01.016Z,995.6091
2022-10-28T08:04:01.176Z,995.7322
2022-10-28T08:05:00.308Z,995.7609
2022-10-28T08:06:00.450Z,995.833
2022-10-28T08:07:00.598Z,995.6799
2022-10-28T08:08:00.740Z,995.7086
2022-10-28T08:09:00.910Z,995.628
2022-10-28T08:10:01.036Z,995.6639
2022-10-28T08:11:01.177Z,995.5776
2022-10-28T08:12:00.324Z,995.577
2022-10-28T08:13:00.479Z,995.6184
2022-10-28T08:14:00.634Z,995.7416
2022-10-28T08:15:00.783Z,995.5612
2022-10-28T08:16:00.916Z,995.4662
2022-10-28T08:17:01.060Z,995.6095
2022-10-28T08:18:01.200Z,995.6378
2022-10-28T08:19:02.935Z,995.4278
2022-10-28T08:20:00.507Z,995.522
2022-10-28T08:22:00.786Z,995.4552
2022-10-28T08:23:03.950Z,995.5274
2022-10-28T08:24:01.086Z,995.5489
2022-10-28T08:25:01.272Z,995.4974
2022-10-28T08:26:00.387Z,995.3584
2022-10-28T08:27:00.518Z,995.4817
2022-10-28T08:28:00.682Z,995.5027
2022-10-28T08:29:00.858Z,995.3933
2022-10-28T08:30:00.999Z,995.5095
2022-10-28T08:31:08.230Z,995.6022
2022-10-28T08:32:00.271Z,995.3704
2022-10-28T08:33:00.418Z,995.4356
2022-10-28T08:34:00.578Z,995.4934
2022-10-28T08:35:00.743Z,995.3767
2022-10-28T08:36:00.869Z,995.4934
2022-10-28T08:37:01.083Z,995.4499
2022-10-28T08:38:01.148Z,995.3844
2022-10-28T08:39:00.290Z,995.5011
2022-10-28T08:40:00.444Z,995.3556
2022-10-28T08:41:00.599Z,995.4503
2022-10-28T08:42:00.739Z,995.4431
2022-10-28T08:43:00.899Z,995.3121
2022-10-28T08:44:01.031Z,995.3556
2022-10-28T08:45:01.174Z,995.3992
2022-10-28T08:46:00.360Z,995.3699
2022-10-28T08:47:00.468Z,995.304
2022-10-28T08:49:00.766Z,995.4128
2022-10-28T08:50:00.912Z,995.3467
2022-10-28T08:51:01.079Z,995.4415
2022-10-28T08:52:01.217Z,995.5432
2022-10-28T08:53:00.359Z,995.368
2022-10-28T08:54:00.496Z,995.4264
2022-10-28T08:55:00.655Z,995.4848
2022-10-28T08:56:00.823Z,995.3391
2022-10-28T08:57:00.955Z,995.4778
2022-10-28T08:58:01.108Z,995.3611
2022-10-28T08:59:01.246Z,995.5215
2022-10-28T09:00:00.393Z,995.3319
2022-10-28T09:01:00.683Z,995.3464
2022-10-28T09:02:00.691Z,995.3611
2022-10-28T09:03:00.839Z,995.2735
2022-10-28T09:04:00.981Z,995.2443
2022-10-28T09:05:01.248Z,995.2443
2022-10-28T09:06:00.290Z,995.2443
2022-10-28T09:07:00.416Z,995.1716
2022-10-28T09:08:00.569Z,995.3027
2022-10-28T09:09:00.724Z,995.2443
2022-10-28T09:10:00.865Z,995.2443
2022-10-28T09:11:01.039Z,995.332
2022-10-28T09:12:01.163Z,995.0477
2022-10-28T09:13:00.303Z,995.2152
2022-10-28T09:14:00.473Z,995.0693
2022-10-28T09:15:00.615Z,995.1128
2022-10-28T09:16:00.781Z,995.0176
2022-10-28T09:17:00.911Z,995.0904
2022-10-28T09:18:01.059Z,995.1703
2022-10-28T09:19:01.206Z,995.0754
2022-10-28T09:20:00.347Z,995.0827
2022-10-28T09:21:00.522Z,995.2572
2022-10-28T09:22:00.655Z,995.0672
2022-10-28T09:23:00.802Z,994.8844
2022-10-28T09:24:00.950Z,994.9715
2022-10-28T09:25:01.310Z,994.8177
2022-10-28T09:26:01.274Z,995.0141
2022-10-28T09:27:00.396Z,995.0061
2022-10-28T09:28:00.547Z,994.962
2022-10-28T09:29:00.758Z,995.034
2022-10-28T09:30:00.852Z,994.8147
2022-10-28T09:31:01.009Z,994.9312
2022-10-28T09:32:01.163Z,994.8799
2022-10-28T09:33:00.296Z,994.821
2022-10-28T09:34:00.436Z,994.8938
2022-10-28T09:35:00.641Z,994.8938
2022-10-28T09:36:00.743Z,994.8056
2022-10-28T09:37:00.896Z,994.7836
2022-10-28T09:38:01.043Z,994.7692
2022-10-28T09:39:01.180Z,994.6402
2022-10-28T09:40:00.344Z,994.6688
2022-10-28T09:41:00.483Z,994.7394
2022-10-28T09:42:00.632Z,994.7543
2022-10-28T09:43:00.793Z,994.5887
2022-10-28T09:44:00.931Z,994.6324
2022-10-28T09:45:01.078Z,994.5232
2022-10-28T09:46:01.229Z,994.5822
2022-10-28T09:47:00.374Z,994.5969
2022-10-28T09:48:00.539Z,994.677
2022-10-28T09:49:00.689Z,994.5453
2022-10-28T09:50:00.820Z,994.4652
2022-10-28T09:51:00.993Z,994.4724
2022-10-28T09:52:01.128Z,994.5161
2022-10-28T09:53:00.261Z,994.5012
2022-10-28T09:54:00.424Z,994.4791
2022-10-28T09:55:00.581Z,994.5079
2022-10-28T09:56:00.766Z,994.6242
2022-10-28T09:57:00.870Z,994.5072
2022-10-28T09:58:01.004Z,994.6678
2022-10-28T09:59:01.145Z,994.4847
2022-10-28T10:00:00.301Z,994.5647
2022-10-28T10:01:00.465Z,994.4327
2022-10-28T10:02:00.747Z,994.4321
2022-10-28T10:03:00.813Z,994.4536
2022-10-28T10:04:00.887Z,994.4679
2022-10-28T10:05:01.032Z,994.4819
2022-10-28T10:06:01.209Z,994.4593
2022-10-28T10:07:00.338Z,994.1953
2022-10-28T10:08:00.483Z,994.1876
2022-10-28T10:09:00.621Z,994.2527
2022-10-28T10:10:00.805Z,994.4131
2022-10-28T10:11:00.948Z,994.281
2022-10-28T10:12:01.063Z,994.2073
2022-10-28T10:13:01.236Z,994.3533
2022-10-28T10:14:00.378Z,994.192
2022-10-28T10:15:00.536Z,994.2649
2022-10-28T10:16:00.698Z,994.3014
2022-10-28T10:17:00.828Z,994.1985
2022-10-28T10:18:00.978Z,994.3007
2022-10-28T10:19:01.133Z,994.3295
2022-10-28T10:20:00.278Z,994.2123
2022-10-28T10:21:00.441Z,994.3295
2022-10-28T10:22:00.564Z,994.0952
2022-10-28T10:23:00.728Z,994.1538
2022-10-28T10:24:00.870Z,994.0366
2022-10-28T10:25:01.030Z,993.9858
2022-10-28T10:26:01.187Z,994.2493
2022-10-28T10:27:00.304Z,994.2128
2022-10-28T10:28:00.456Z,994.2202
2022-10-28T10:29:00.606Z,994.3295
2022-10-28T10:30:00.752Z,994.0952
2022-10-28T10:31:00.920Z,994.241
2022-10-28T10:32:01.050Z,994.277
2022-10-28T10:33:01.191Z,994.1881
2022-10-28T10:34:00.344Z,994.2967
2022-10-28T10:35:00.484Z,994.3981
2022-10-28T10:36:00.662Z,994.2658
2022-10-28T10:37:00.844Z,994.3826
2022-10-28T10:38:00.937Z,994.2653
2022-10-28T10:39:01.103Z,994.2355
2022-10-28T10:40:01.238Z,994.3162
2022-10-28T10:41:00.418Z,994.2499
2022-10-28T10:42:00.564Z,994.2642
2022-10-28T10:43:12.757Z,994.1977
2022-10-28T10:44:00.880Z,994.2191
2022-10-28T10:45:01.001Z,994.3071
2022-10-28T10:46:01.157Z,994.212
2022-10-28T10:47:05.095Z,994.2632
2022-10-28T10:48:00.446Z,994.3436
2022-10-28T10:49:00.586Z,994.4607
2022-10-28T10:50:00.720Z,994.3063
2022-10-28T10:51:00.869Z,994.3723
2022-10-28T10:52:01.063Z,994.1889
2022-10-28T10:53:01.180Z,994.4741
2022-10-28T10:54:00.335Z,994.386
2022-10-28T10:55:00.504Z,994.3867
2022-10-28T10:56:00.649Z,994.3573
2022-10-28T10:57:00.793Z,994.3572
2022-10-28T10:58:00.922Z,994.2393
2022-10-28T10:59:01.069Z,994.2393
2022-10-28T11:00:01.221Z,994.4227
2022-10-28T11:01:00.384Z,994.3345
2022-10-28T11:02:00.693Z,994.3784
2022-10-28T11:03:00.746Z,994.3052
2022-10-28T11:04:00.869Z,994.2758
2022-10-28T11:05:00.969Z,994.3711
2022-10-28T11:06:22.594Z,994.3123
2022-10-28T11:07:01.261Z,994.4736
2022-10-28T11:08:00.427Z,994.3489
2022-10-28T11:09:00.623Z,994.3123
2022-10-28T11:10:00.698Z,994.3932
2022-10-28T11:11:00.859Z,994.2466
2022-10-28T11:12:00.995Z,994.3052
2022-10-28T11:13:01.172Z,994.2758
2022-10-28T11:14:00.290Z,994.2393
2022-10-28T11:15:00.434Z,994.108
2022-10-28T11:16:00.583Z,994.123
2022-10-28T11:17:00.731Z,994.1746
2022-10-28T11:18:00.890Z,994.1889
2022-10-28T11:19:01.020Z,994.2106
2022-10-28T11:20:01.173Z,994.1297
2022-10-28T11:21:00.316Z,994.0118
2022-10-28T11:22:00.451Z,993.9673
2022-10-28T11:23:00.624Z,993.9966
2022-10-28T11:24:00.751Z,994.0111
2022-10-28T11:25:00.910Z,993.8859
2022-10-28T11:26:01.075Z,993.856
2022-10-28T11:27:01.192Z,993.9436
2022-10-28T11:28:04.054Z,993.8621
2022-10-28T11:29:00.501Z,993.9121
2022-10-28T11:30:00.654Z,993.9847
2022-10-28T11:31:00.872Z,993.9548
2022-10-28T11:32:00.959Z,993.7924
2022-10-28T11:33:02.155Z,993.8583
2022-10-28T11:34:01.249Z,993.9316
2022-10-28T11:35:00.391Z,993.703
2022-10-28T11:36:00.565Z,993.6874
2022-10-28T11:37:00.680Z,993.841
2022-10-28T11:38:00.835Z,993.899
2022-10-28T11:39:00.982Z,993.7808
2022-10-28T11:40:01.128Z,993.8535
2022-10-28T11:41:00.309Z,993.875
2022-10-28T11:42:00.426Z,993.8967
2022-10-28T11:43:00.575Z,993.8666
2022-10-28T11:44:05.024Z,993.7707
2022-10-28T11:45:00.860Z,993.8507
2022-10-28T11:46:01.026Z,993.6447
2022-10-28T11:47:04.177Z,993.8279
2022-10-28T11:48:00.310Z,993.7691
2022-10-28T11:49:00.460Z,993.9448